sensor_id;sensor_type;location;lat;lon;timestamp;pressure;altitude;pressure_sealevel;temperature;humidity
55679;BME280;41573;51.446;-2.018;2023-04-28T00:01:06;100335.88;;;11.64;100.00
55679;BME280;41573;51.446;-2.018;2023-04-28T00:03:34;100336.31;;;11.70;100.00
55679;BME280;41573;51.446;-2.018;2023-04-28T00:06:01;100320.22;;;11.72;100.00
55679;BME280;41573;51.446;-2.018;2023-04-28T00:08:27;100320.31;;;11.70;100.00
55679;BME280;41573;51.446;-2.018;2023-04-28T00:10:53;100314.16;;;11.70;100.00
55679;BME280;41573;51.446;-2.018;2023-04-28T00:13:18;100319.25;;;11.73;100.00
55679;BME280;41573;51.446;-2.018;2023-04-28T00:15:44;100315.41;;;11.77;100.00
55679;BME280;41573;51.446;-2.018;2023-04-28T00:18:10;100322.66;;;11.75;100.00
55679;BME280;41573;51.446;-2.018;2023-04-28T00:20:37;100318.09;;;11.77;100.00
55679;BME280;41573;51.446;-2.018;2023-04-28T00:23:03;100311.16;;;11.75;100.00
55679;BME280;41573;51.446;-2.018;2023-04-28T00:25:34;100310.81;;;11.79;100.00
55679;BME280;41573;51.446;-2.018;2023-04-28T00:28:00;100302.81;;;11.79;100.00
55679;BME280;41573;51.446;-2.018;2023-04-28T00:30:26;100304.97;;;11.74;100.00
55679;BME280;41573;51.446;-2.018;2023-04-28T00:32:51;100308.38;;;11.76;100.00
55679;BME280;41573;51.446;-2.018;2023-04-28T00:35:17;100309.09;;;11.78;100.00
55679;BME280;41573;51.446;-2.018;2023-04-28T00:37:43;100311.38;;;11.84;100.00
55679;BME280;41573;51.446;-2.018;2023-04-28T00:40:08;100311.47;;;11.83;100.00
55679;BME280;41573;51.446;-2.018;2023-04-28T00:42:34;100312.31;;;11.83;100.00
55679;BME280;41573;51.446;-2.018;2023-04-28T00:44:59;100310.50;;;11.84;100.00
55679;BME280;41573;51.446;-2.018;2023-04-28T00:47:31;100303.47;;;11.83;100.00
55679;BME280;41573;51.446;-2.018;2023-04-28T00:49:58;100307.75;;;11.85;100.00
55679;BME280;41573;51.446;-2.018;2023-04-28T00:52:36;100300.25;;;11.90;100.00
55679;BME280;41573;51.446;-2.018;2023-04-28T00:55:03;100297.38;;;11.94;100.00
55679;BME280;41573;51.446;-2.018;2023-04-28T00:57:30;100292.81;;;11.96;100.00
55679;BME280;41573;51.446;-2.018;2023-04-28T00:59:56;100289.38;;;11.94;100.00
55679;BME280;41573;51.446;-2.018;2023-04-28T01:02:21;100287.66;;;11.93;100.00
55679;BME280;41573;51.446;-2.018;2023-04-28T01:04:48;100292.81;;;11.96;100.00
55679;BME280;41573;51.446;-2.018;2023-04-28T01:07:15;100298.16;;;11.96;100.00
55679;BME280;41573;51.446;-2.018;2023-04-28T01:09:40;100293.78;;;11.95;100.00
55679;BME280;41573;51.446;-2.018;2023-04-28T01:12:06;100294.50;;;11.97;100.00
55679;BME280;41573;51.446;-2.018;2023-04-28T01:14:32;100300.72;;;11.97;100.00
55679;BME280;41573;51.446;-2.018;2023-04-28T01:16:58;100299.84;;;11.97;100.00
55679;BME280;41573;51.446;-2.018;2023-04-28T01:19:23;100300.81;;;11.96;100.00
55679;BME280;41573;51.446;-2.018;2023-04-28T01:21:49;100300.81;;;11.96;100.00
55679;BME280;41573;51.446;-2.018;2023-04-28T01:24:15;100297.16;;;11.97;100.00
55679;BME280;41573;51.446;-2.018;2023-04-28T01:26:41;100304.34;;;11.96;100.00
55679;BME280;41573;51.446;-2.018;2023-04-28T01:29:07;100301.56;;;11.98;100.00
55679;BME280;41573;51.446;-2.018;2023-04-28T01:31:32;100308.81;;;11.96;100.00
55679;BME280;41573;51.446;-2.018;2023-04-28T01:33:57;100307.78;;;11.98;100.00
55679;BME280;41573;51.446;-2.018;2023-04-28T01:36:24;100300.59;;;11.99;100.00
55679;BME280;41573;51.446;-2.018;2023-04-28T01:38:51;100312.00;;;12.01;100.00
55679;BME280;41573;51.446;-2.018;2023-04-28T01:41:17;100303.38;;;11.97;100.00
55679;BME280;41573;51.446;-2.018;2023-04-28T01:43:45;100313.94;;;11.99;100.00
55679;BME280;41573;51.446;-2.018;2023-04-28T01:46:11;100306.91;;;11.98;100.00
55679;BME280;41573;51.446;-2.018;2023-04-28T01:48:36;100313.72;;;12.02;100.00
55679;BME280;41573;51.446;-2.018;2023-04-28T01:51:02;100313.94;;;11.99;100.00
55679;BME280;41573;51.446;-2.018;2023-04-28T01:53:27;100316.38;;;12.02;100.00
55679;BME280;41573;51.446;-2.018;2023-04-28T01:55:53;100317.56;;;11.98;100.00
55679;BME280;41573;51.446;-2.018;2023-04-28T01:58:18;100313.00;;;12.00;100.00
55679;BME280;41573;51.446;-2.018;2023-04-28T02:00:44;100311.91;;;12.02;100.00
55679;BME280;41573;51.446;-2.018;2023-04-28T02:03:10;100324.41;;;12.02;100.00
55679;BME280;41573;51.446;-2.018;2023-04-28T02:05:36;100314.59;;;12.15;100.00
55679;BME280;41573;51.446;-2.018;2023-04-28T02:08:01;100313.81;;;12.13;100.00
55679;BME280;41573;51.446;-2.018;2023-04-28T02:10:29;100314.34;;;12.18;100.00
55679;BME280;41573;51.446;-2.018;2023-04-28T02:12:55;100314.03;;;12.10;100.00
55679;BME280;41573;51.446;-2.018;2023-04-28T02:15:20;100316.72;;;12.10;100.00
55679;BME280;41573;51.446;-2.018;2023-04-28T02:17:46;100328.56;;;12.06;100.00
55679;BME280;41573;51.446;-2.018;2023-04-28T02:20:15;100324.19;;;12.05;100.00
55679;BME280;41573;51.446;-2.018;2023-04-28T02:22:40;100324.94;;;12.07;100.00
55679;BME280;41573;51.446;-2.018;2023-04-28T02:25:07;100317.16;;;12.04;100.00
55679;BME280;41573;51.446;-2.018;2023-04-28T02:27:34;100322.50;;;12.04;100.00
55679;BME280;41573;51.446;-2.018;2023-04-28T02:30:02;100327.84;;;12.04;100.00
55679;BME280;41573;51.446;-2.018;2023-04-28T02:32:28;100337.75;;;12.02;100.00
55679;BME280;41573;51.446;-2.018;2023-04-28T02:34:54;100335.19;;;12.00;100.00
55679;BME280;41573;51.446;-2.018;2023-04-28T02:37:20;100332.75;;;11.97;100.00
55679;BME280;41573;51.446;-2.018;2023-04-28T02:39:54;100329.13;;;11.98;100.00
55679;BME280;41573;51.446;-2.018;2023-04-28T02:42:23;100329.13;;;11.98;100.00
55679;BME280;41573;51.446;-2.018;2023-04-28T02:44:51;100330.91;;;11.98;100.00
55679;BME280;41573;51.446;-2.018;2023-04-28T02:47:17;100332.84;;;11.96;100.00
55679;BME280;41573;51.446;-2.018;2023-04-28T02:49:42;100327.88;;;11.89;100.00
55679;BME280;41573;51.446;-2.018;2023-04-28T02:52:07;100332.09;;;11.94;100.00
55679;BME280;41573;51.446;-2.018;2023-04-28T02:54:33;100340.16;;;11.92;100.00
55679;BME280;41573;51.446;-2.018;2023-04-28T02:57:01;100343.63;;;11.94;100.00
55679;BME280;41573;51.446;-2.018;2023-04-28T02:59:28;100339.13;;;11.95;100.00
55679;BME280;41573;51.446;-2.018;2023-04-28T03:01:53;100343.81;;;11.91;100.00
55679;BME280;41573;51.446;-2.018;2023-04-28T03:04:19;100344.66;;;11.92;100.00
55679;BME280;41573;51.446;-2.018;2023-04-28T03:06:44;100336.88;;;11.88;100.00
55679;BME280;41573;51.446;-2.018;2023-04-28T03:09:10;100340.28;;;11.90;100.00
55679;BME280;41573;51.446;-2.018;2023-04-28T03:11:37;100346.56;;;11.89;100.00
55679;BME280;41573;51.446;-2.018;2023-04-28T03:14:03;100348.28;;;11.90;100.00
55679;BME280;41573;51.446;-2.018;2023-04-28T03:16:28;100344.88;;;11.88;100.00
55679;BME280;41573;51.446;-2.018;2023-04-28T03:18:54;100336.34;;;11.83;100.00
55679;BME280;41573;51.446;-2.018;2023-04-28T03:21:19;100345.28;;;11.82;100.00
55679;BME280;41573;51.446;-2.018;2023-04-28T03:24:01;100363.00;;;11.83;100.00
55679;BME280;41573;51.446;-2.018;2023-04-28T03:26:38;100362.16;;;11.83;100.00
55679;BME280;41573;51.446;-2.018;2023-04-28T03:29:04;100362.78;;;11.86;100.00
55679;BME280;41573;51.446;-2.018;2023-04-28T03:31:30;100354.06;;;11.84;100.00
55679;BME280;41573;51.446;-2.018;2023-04-28T03:33:58;100359.19;;;11.87;100.00
55679;BME280;41573;51.446;-2.018;2023-04-28T03:36:24;100354.78;;;11.86;100.00
55679;BME280;41573;51.446;-2.018;2023-04-28T03:39:03;100374.34;;;11.74;100.00
55679;BME280;41573;51.446;-2.018;2023-04-28T03:41:34;100381.69;;;11.70;100.00
55679;BME280;41573;51.446;-2.018;2023-04-28T03:44:03;100384.66;;;11.66;100.00
55679;BME280;41573;51.446;-2.018;2023-04-28T03:46:28;100388.38;;;11.63;100.00
55679;BME280;41573;51.446;-2.018;2023-04-28T03:48:54;100398.84;;;11.66;100.00
55679;BME280;41573;51.446;-2.018;2023-04-28T03:51:25;100391.78;;;11.65;100.00
55679;BME280;41573;51.446;-2.018;2023-04-28T03:53:54;100382.09;;;11.64;100.00
55679;BME280;41573;51.446;-2.018;2023-04-28T03:56:29;100397.34;;;11.62;100.00
55679;BME280;41573;51.446;-2.018;2023-04-28T03:58:57;100399.28;;;11.60;100.00
55679;BME280;41573;51.446;-2.018;2023-04-28T04:01:23;100400.13;;;11.61;100.00
55679;BME280;41573;51.446;-2.018;2023-04-28T04:04:06;100395.56;;;11.63;100.00
55679;BME280;41573;51.446;-2.018;2023-04-28T04:06:31;100408.78;;;11.64;100.00
55679;BME280;41573;51.446;-2.018;2023-04-28T04:08:57;100400.97;;;11.61;100.00
55679;BME280;41573;51.446;-2.018;2023-04-28T04:11:23;100406.13;;;11.64;100.00
55679;BME280;41573;51.446;-2.018;2023-04-28T04:13:48;100413.44;;;11.61;100.00
55679;BME280;41573;51.446;-2.018;2023-04-28T04:16:13;100413.56;;;11.59;100.00
55679;BME280;41573;51.446;-2.018;2023-04-28T04:18:42;100410.16;;;11.57;100.00
55679;BME280;41573;51.446;-2.018;2023-04-28T04:21:29;100416.31;;;11.58;100.00
55679;BME280;41573;51.446;-2.018;2023-04-28T04:23:56;100409.31;;;11.69;100.00
55679;BME280;41573;51.446;-2.018;2023-04-28T04:26:22;100397.03;;;11.67;100.00
55679;BME280;41573;51.446;-2.018;2023-04-28T04:28:48;100412.06;;;11.68;100.00
55679;BME280;41573;51.446;-2.018;2023-04-28T04:31:13;100409.31;;;11.69;100.00
55679;BME280;41573;51.446;-2.018;2023-04-28T04:33:39;100418.91;;;11.59;100.00
55679;BME280;41573;51.446;-2.018;2023-04-28T04:36:06;100412.94;;;11.55;100.00
55679;BME280;41573;51.446;-2.018;2023-04-28T04:38:31;100409.50;;;11.53;100.00
55679;BME280;41573;51.446;-2.018;2023-04-28T04:40:57;100421.88;;;11.54;100.00
55679;BME280;41573;51.446;-2.018;2023-04-28T04:43:23;100421.88;;;11.54;100.00
55679;BME280;41573;51.446;-2.018;2023-04-28T04:45:48;100420.16;;;11.53;100.00
55679;BME280;41573;51.446;-2.018;2023-04-28T04:48:14;100418.78;;;11.61;100.00
55679;BME280;41573;51.446;-2.018;2023-04-28T04:50:42;100424.00;;;11.62;100.00
55679;BME280;41573;51.446;-2.018;2023-04-28T04:53:08;100420.50;;;11.62;100.00
55679;BME280;41573;51.446;-2.018;2023-04-28T04:55:34;100425.06;;;11.60;100.00
55679;BME280;41573;51.446;-2.018;2023-04-28T04:57:59;100421.66;;;11.58;100.00
55679;BME280;41573;51.446;-2.018;2023-04-28T05:00:25;100428.63;;;11.60;100.00
55679;BME280;41573;51.446;-2.018;2023-04-28T05:02:51;100432.13;;;11.61;100.00
55679;BME280;41573;51.446;-2.018;2023-04-28T05:05:16;100432.44;;;11.56;100.00
55679;BME280;41573;51.446;-2.018;2023-04-28T05:07:42;100432.97;;;11.61;100.00
55679;BME280;41573;51.446;-2.018;2023-04-28T05:10:08;100426.88;;;11.59;100.00
55679;BME280;41573;51.446;-2.018;2023-04-28T05:12:36;100436.50;;;11.62;100.00
55679;BME280;41573;51.446;-2.018;2023-04-28T05:15:01;100439.19;;;11.62;100.00
55679;BME280;41573;51.446;-2.018;2023-04-28T05:17:27;100446.22;;;11.63;100.00
55679;BME280;41573;51.446;-2.018;2023-04-28T05:19:52;100445.34;;;11.62;100.00
55679;BME280;41573;51.446;-2.018;2023-04-28T05:22:17;100449.84;;;11.62;100.00
55679;BME280;41573;51.446;-2.018;2023-04-28T05:24:45;100457.84;;;11.62;100.00
55679;BME280;41573;51.446;-2.018;2023-04-28T05:27:10;100464.13;;;11.61;100.00
55679;BME280;41573;51.446;-2.018;2023-04-28T05:29:39;100465.84;;;11.62;100.00
55679;BME280;41573;51.446;-2.018;2023-04-28T05:32:04;100471.19;;;11.62;100.00
55679;BME280;41573;51.446;-2.018;2023-04-28T05:34:30;100475.63;;;11.61;100.00
55679;BME280;41573;51.446;-2.018;2023-04-28T05:36:55;100482.69;;;11.62;100.00
55679;BME280;41573;51.446;-2.018;2023-04-28T05:39:21;100489.53;;;11.66;100.00
55679;BME280;41573;51.446;-2.018;2023-04-28T05:41:46;100489.66;;;11.65;100.00
55679;BME280;41573;51.446;-2.018;2023-04-28T05:44:12;100507.56;;;11.63;100.00
55679;BME280;41573;51.446;-2.018;2023-04-28T05:46:37;100512.97;;;11.61;100.00
55679;BME280;41573;51.446;-2.018;2023-04-28T05:49:03;100511.19;;;11.62;100.00
55679;BME280;41573;51.446;-2.018;2023-04-28T05:51:31;100518.53;;;11.58;100.00
55679;BME280;41573;51.446;-2.018;2023-04-28T05:53:57;100522.06;;;11.59;100.00
55679;BME280;41573;51.446;-2.018;2023-04-28T05:56:23;100533.88;;;11.54;100.00
55679;BME280;41573;51.446;-2.018;2023-04-28T05:58:52;100519.78;;;11.52;100.00
55679;BME280;41573;51.446;-2.018;2023-04-28T06:01:17;100534.28;;;11.48;100.00
55679;BME280;41573;51.446;-2.018;2023-04-28T06:03:43;100546.13;;;11.44;100.00
55679;BME280;41573;51.446;-2.018;2023-04-28T06:06:09;100541.41;;;11.48;100.00
55679;BME280;41573;51.446;-2.018;2023-04-28T06:08:35;100538.75;;;11.48;100.00
55679;BME280;41573;51.446;-2.018;2023-04-28T06:11:01;100547.59;;;11.48;100.00
55679;BME280;41573;51.446;-2.018;2023-04-28T06:13:26;100550.09;;;11.51;100.00
55679;BME280;41573;51.446;-2.018;2023-04-28T06:15:52;100546.44;;;11.52;100.00
55679;BME280;41573;51.446;-2.018;2023-04-28T06:18:17;100547.13;;;11.56;100.00
55679;BME280;41573;51.446;-2.018;2023-04-28T06:20:43;100544.66;;;11.53;100.00
55679;BME280;41573;51.446;-2.018;2023-04-28T06:23:08;100546.66;;;11.49;100.00
55679;BME280;41573;51.446;-2.018;2023-04-28T06:25:34;100539.97;;;11.56;100.00
55679;BME280;41573;51.446;-2.018;2023-04-28T06:28:01;100540.06;;;11.55;100.00
55679;BME280;41573;51.446;-2.018;2023-04-28T06:30:26;100553.00;;;11.61;100.00
55679;BME280;41573;51.446;-2.018;2023-04-28T06:33:00;100560.06;;;11.62;100.00
55679;BME280;41573;51.446;-2.018;2023-04-28T06:35:26;100564.22;;;11.66;100.00
55679;BME280;41573;51.446;-2.018;2023-04-28T06:37:52;100563.66;;;11.61;100.00
55679;BME280;41573;51.446;-2.018;2023-04-28T06:40:18;100572.34;;;11.65;100.00
55679;BME280;41573;51.446;-2.018;2023-04-28T06:42:43;100573.06;;;11.67;100.00
55679;BME280;41573;51.446;-2.018;2023-04-28T06:45:09;100578.13;;;11.71;100.00
55679;BME280;41573;51.446;-2.018;2023-04-28T06:47:35;100589.28;;;11.64;100.00
55679;BME280;41573;51.446;-2.018;2023-04-28T06:50:02;100587.97;;;11.56;100.00
55679;BME280;41573;51.446;-2.018;2023-04-28T06:52:27;100587.03;;;11.58;100.00
55679;BME280;41573;51.446;-2.018;2023-04-28T06:54:54;100585.88;;;11.62;100.00
55679;BME280;41573;51.446;-2.018;2023-04-28T06:57:20;100589.19;;;11.65;100.00
55679;BME280;41573;51.446;-2.018;2023-04-28T07:00:00;100598.34;;;11.61;100.00
55679;BME280;41573;51.446;-2.018;2023-04-28T07:02:28;100597.19;;;11.65;100.00
55679;BME280;41573;51.446;-2.018;2023-04-28T07:04:57;100607.38;;;11.73;100.00
55679;BME280;41573;51.446;-2.018;2023-04-28T07:07:23;100612.34;;;11.65;100.00
55679;BME280;41573;51.446;-2.018;2023-04-28T07:09:49;100612.91;;;11.70;100.00
55679;BME280;41573;51.446;-2.018;2023-04-28T07:12:14;100615.06;;;11.78;100.00
55679;BME280;41573;51.446;-2.018;2023-04-28T07:14:40;100617.84;;;11.76;100.00
55679;BME280;41573;51.446;-2.018;2023-04-28T07:17:05;100619.38;;;11.80;100.00
55679;BME280;41573;51.446;-2.018;2023-04-28T07:19:31;100628.88;;;11.84;100.00
55679;BME280;41573;51.446;-2.018;2023-04-28T07:21:56;100628.69;;;11.87;100.00
55679;BME280;41573;51.446;-2.018;2023-04-28T07:24:22;100638.69;;;11.84;100.00
55679;BME280;41573;51.446;-2.018;2023-04-28T07:26:48;100638.41;;;11.88;100.00
55679;BME280;41573;51.446;-2.018;2023-04-28T07:29:13;100643.06;;;11.85;100.00
55679;BME280;41573;51.446;-2.018;2023-04-28T07:31:39;100650.03;;;11.87;100.00
55679;BME280;41573;51.446;-2.018;2023-04-28T07:34:05;100658.25;;;11.84;100.00
55679;BME280;41573;51.446;-2.018;2023-04-28T07:36:30;100663.09;;;11.78;100.00
55679;BME280;41573;51.446;-2.018;2023-04-28T07:38:59;100665.03;;;11.76;100.00
55679;BME280;41573;51.446;-2.018;2023-04-28T07:41:26;100686.47;;;11.74;100.00
55679;BME280;41573;51.446;-2.018;2023-04-28T07:43:52;100674.63;;;11.78;100.00
55679;BME280;41573;51.446;-2.018;2023-04-28T07:46:17;100681.47;;;11.82;100.00
55679;BME280;41573;51.446;-2.018;2023-04-28T07:48:44;100690.63;;;11.78;100.00
55679;BME280;41573;51.446;-2.018;2023-04-28T07:51:09;100695.41;;;11.87;100.00
55679;BME280;41573;51.446;-2.018;2023-04-28T07:53:35;100707.91;;;11.87;100.00
55679;BME280;41573;51.446;-2.018;2023-04-28T07:56:00;100716.06;;;11.84;100.00
55679;BME280;41573;51.446;-2.018;2023-04-28T07:58:26;100724.16;;;11.82;100.00
55679;BME280;41573;51.446;-2.018;2023-04-28T08:00:51;100723.22;;;11.83;100.00
55679;BME280;41573;51.446;-2.018;2023-04-28T08:03:17;100738.28;;;11.84;100.00
55679;BME280;41573;51.446;-2.018;2023-04-28T08:05:42;100739.34;;;11.82;100.00
55679;BME280;41573;51.446;-2.018;2023-04-28T08:08:09;100729.50;;;11.82;100.00
55679;BME280;41573;51.446;-2.018;2023-04-28T08:10:34;100739.81;;;11.88;100.00
55679;BME280;41573;51.446;-2.018;2023-04-28T08:13:00;100750.50;;;11.88;100.00
55679;BME280;41573;51.446;-2.018;2023-04-28T08:15:26;100746.94;;;11.88;100.00
55679;BME280;41573;51.446;-2.018;2023-04-28T08:17:52;100758.41;;;11.90;100.00
55679;BME280;41573;51.446;-2.018;2023-04-28T08:20:17;100755.38;;;11.96;100.00
55679;BME280;41573;51.446;-2.018;2023-04-28T08:22:46;100761.94;;;12.05;100.00
55679;BME280;41573;51.446;-2.018;2023-04-28T08:25:15;100763.16;;;12.14;100.00
55679;BME280;41573;51.446;-2.018;2023-04-28T08:27:40;100766.09;;;12.23;100.00
55679;BME280;41573;51.446;-2.018;2023-04-28T08:30:09;100769.13;;;12.32;100.00
55679;BME280;41573;51.446;-2.018;2023-04-28T08:32:35;100773.00;;;12.40;100.00
55679;BME280;41573;51.446;-2.018;2023-04-28T08:35:00;100771.53;;;12.49;100.00
55679;BME280;41573;51.446;-2.018;2023-04-28T08:37:26;100769.44;;;12.54;100.00
55679;BME280;41573;51.446;-2.018;2023-04-28T08:39:51;100777.91;;;12.61;100.00
55679;BME280;41573;51.446;-2.018;2023-04-28T08:42:28;100779.34;;;12.67;100.00
55679;BME280;41573;51.446;-2.018;2023-04-28T08:44:55;100784.25;;;12.73;100.00
55679;BME280;41573;51.446;-2.018;2023-04-28T08:47:23;100781.28;;;12.77;100.00
55679;BME280;41573;51.446;-2.018;2023-04-28T08:49:49;100785.19;;;12.86;100.00
55679;BME280;41573;51.446;-2.018;2023-04-28T08:52:16;100784.97;;;12.89;100.00
55679;BME280;41573;51.446;-2.018;2023-04-28T08:54:43;100792.22;;;12.87;100.00
55679;BME280;41573;51.446;-2.018;2023-04-28T08:57:09;100796.31;;;13.06;100.00
55679;BME280;41573;51.446;-2.018;2023-04-28T08:59:39;100803.22;;;13.23;100.00
55679;BME280;41573;51.446;-2.018;2023-04-28T09:02:07;100805.28;;;13.32;100.00
55679;BME280;41573;51.446;-2.018;2023-04-28T09:04:32;100795.31;;;13.34;100.00
55679;BME280;41573;51.446;-2.018;2023-04-28T09:06:58;100798.19;;;13.31;100.00
55679;BME280;41573;51.446;-2.018;2023-04-28T09:09:28;100802.59;;;13.32;100.00
55679;BME280;41573;51.446;-2.018;2023-04-28T09:11:55;100798.56;;;13.39;100.00
55679;BME280;41573;51.446;-2.018;2023-04-28T09:14:22;100808.38;;;13.39;100.00
55679;BME280;41573;51.446;-2.018;2023-04-28T09:16:49;100805.94;;;13.36;100.00
55679;BME280;41573;51.446;-2.018;2023-04-28T09:19:15;100785.94;;;13.41;100.00
55679;BME280;41573;51.446;-2.018;2023-04-28T09:21:55;100793.84;;;13.43;100.00
55679;BME280;41573;51.446;-2.018;2023-04-28T09:24:39;100796.84;;;13.51;100.00
55679;BME280;41573;51.446;-2.018;2023-04-28T09:27:07;100787.53;;;13.57;100.00
55679;BME280;41573;51.446;-2.018;2023-04-28T09:29:35;100775.78;;;13.59;100.00
55679;BME280;41573;51.446;-2.018;2023-04-28T09:32:18;100789.81;;;13.76;100.00
55679;BME280;41573;51.446;-2.018;2023-04-28T09:34:46;100786.25;;;13.75;100.00
55679;BME280;41573;51.446;-2.018;2023-04-28T09:37:38;100794.06;;;13.78;100.00
55679;BME280;41573;51.446;-2.018;2023-04-28T09:40:08;100794.06;;;13.91;100.00
55679;BME280;41573;51.446;-2.018;2023-04-28T09:42:41;100796.81;;;14.03;100.00
55679;BME280;41573;51.446;-2.018;2023-04-28T09:45:11;100794.69;;;14.08;100.00
55679;BME280;41573;51.446;-2.018;2023-04-28T09:47:43;100808.63;;;14.13;100.00
55679;BME280;41573;51.446;-2.018;2023-04-28T09:50:12;100804.09;;;14.13;100.00
55679;BME280;41573;51.446;-2.018;2023-04-28T09:52:43;100805.06;;;14.12;100.00
55679;BME280;41573;51.446;-2.018;2023-04-28T09:55:10;100809.34;;;14.15;100.00
55679;BME280;41573;51.446;-2.018;2023-04-28T09:57:37;100804.53;;;14.20;100.00
55679;BME280;41573;51.446;-2.018;2023-04-28T10:00:04;100812.34;;;14.23;100.00
55679;BME280;41573;51.446;-2.018;2023-04-28T10:02:31;100827.94;;;14.29;100.00
55679;BME280;41573;51.446;-2.018;2023-04-28T10:04:58;100831.06;;;14.36;100.00
55679;BME280;41573;51.446;-2.018;2023-04-28T10:07:23;100818.06;;;14.43;100.00
55679;BME280;41573;51.446;-2.018;2023-04-28T10:09:49;100825.44;;;14.52;100.00
55679;BME280;41573;51.446;-2.018;2023-04-28T10:12:15;100837.84;;;14.66;100.00
55679;BME280;41573;51.446;-2.018;2023-04-28T10:14:42;100838.94;;;14.88;100.00
55679;BME280;41573;51.446;-2.018;2023-04-28T10:17:09;100844.25;;;15.00;100.00
55679;BME280;41573;51.446;-2.018;2023-04-28T10:19:34;100842.63;;;15.11;100.00
55679;BME280;41573;51.446;-2.018;2023-04-28T10:24:29;100867.00;;;15.19;100.00
55679;BME280;41573;51.446;-2.018;2023-04-28T10:27:04;100872.59;;;15.16;100.00
55679;BME280;41573;51.446;-2.018;2023-04-28T10:29:31;100864.28;;;15.43;100.00
55679;BME280;41573;51.446;-2.018;2023-04-28T10:32:17;100862.91;;;15.73;100.00
55679;BME280;41573;51.446;-2.018;2023-04-28T10:34:43;100871.16;;;15.94;100.00
55679;BME280;41573;51.446;-2.018;2023-04-28T10:37:09;100881.53;;;16.10;100.00
55679;BME280;41573;51.446;-2.018;2023-04-28T10:39:35;100920.28;;;16.08;100.00
55679;BME280;41573;51.446;-2.018;2023-04-28T10:42:02;100939.38;;;15.92;100.00
55679;BME280;41573;51.446;-2.018;2023-04-28T10:57:45;101035.47;;;16.24;100.00
55679;BME280;41573;51.446;-2.018;2023-04-28T11:00:28;101051.97;;;16.30;100.00
55679;BME280;41573;51.446;-2.018;2023-04-28T11:02:53;101042.50;;;16.49;100.00
55679;BME280;41573;51.446;-2.018;2023-04-28T11:05:19;101059.34;;;16.51;100.00
55679;BME280;41573;51.446;-2.018;2023-04-28T11:08:29;101081.84;;;16.61;100.00
55679;BME280;41573;51.446;-2.018;2023-04-28T11:11:12;101179.03;;;16.68;100.00
55679;BME280;41573;51.446;-2.018;2023-04-28T11:13:39;101223.69;;;16.46;100.00
55679;BME280;41573;51.446;-2.018;2023-04-28T11:16:05;101212.06;;;16.46;100.00
55679;BME280;41573;51.446;-2.018;2023-04-28T11:18:55;101231.34;;;16.64;100.00
55679;BME280;41573;51.446;-2.018;2023-04-28T11:21:23;101253.97;;;16.72;100.00
55679;BME280;41573;51.446;-2.018;2023-04-28T11:23:49;101282.13;;;16.80;100.00
55679;BME280;41573;51.446;-2.018;2023-04-28T11:26:15;101294.69;;;16.92;100.00
55679;BME280;41573;51.446;-2.018;2023-04-28T11:28:56;101271.00;;;16.97;100.00
55679;BME280;41573;51.446;-2.018;2023-04-28T11:31:24;101244.03;;;17.21;100.00
55679;BME280;41573;51.446;-2.018;2023-04-28T11:34:03;101281.34;;;17.26;100.00
55679;BME280;41573;51.446;-2.018;2023-04-28T11:36:34;101287.53;;;17.15;100.00
55679;BME280;41573;51.446;-2.018;2023-04-28T11:39:02;101317.91;;;17.17;100.00
55679;BME280;41573;51.446;-2.018;2023-04-28T11:41:30;101307.78;;;17.32;100.00
55679;BME280;41573;51.446;-2.018;2023-04-28T11:43:56;101303.44;;;17.54;100.00
55679;BME280;41573;51.446;-2.018;2023-04-28T11:46:23;101294.63;;;17.86;100.00
55679;BME280;41573;51.446;-2.018;2023-04-28T11:49:03;101332.63;;;18.05;100.00
55679;BME280;41573;51.446;-2.018;2023-04-28T11:51:29;101380.22;;;17.82;100.00
55679;BME280;41573;51.446;-2.018;2023-04-28T11:53:56;101360.56;;;18.04;100.00
55679;BME280;41573;51.446;-2.018;2023-04-28T11:56:21;101358.97;;;18.02;100.00
55679;BME280;41573;51.446;-2.018;2023-04-28T11:59:10;101380.81;;;17.63;100.00
55679;BME280;41573;51.446;-2.018;2023-04-28T12:01:50;101400.34;;;17.43;100.00
55679;BME280;41573;51.446;-2.018;2023-04-28T12:06:58;101359.03;;;17.31;100.00
55679;BME280;41573;51.446;-2.018;2023-04-28T12:09:24;101388.59;;;17.19;100.00
55679;BME280;41573;51.446;-2.018;2023-04-28T12:12:29;101382.97;;;17.58;100.00
55679;BME280;41573;51.446;-2.018;2023-04-28T12:14:55;101421.00;;;17.42;100.00
55679;BME280;41573;51.446;-2.018;2023-04-28T12:17:29;101417.91;;;17.35;100.00
55679;BME280;41573;51.446;-2.018;2023-04-28T12:19:56;101406.41;;;17.33;100.00
55679;BME280;41573;51.446;-2.018;2023-04-28T12:22:22;101388.53;;;17.32;100.00
55679;BME280;41573;51.446;-2.018;2023-04-28T12:25:08;101365.72;;;17.14;100.00
55679;BME280;41573;51.446;-2.018;2023-04-28T12:27:35;101345.09;;;17.26;100.00
55679;BME280;41573;51.446;-2.018;2023-04-28T12:30:05;101331.69;;;17.60;100.00
55679;BME280;41573;51.446;-2.018;2023-04-28T12:32:48;101257.63;;;17.77;100.00
55679;BME280;41573;51.446;-2.018;2023-04-28T12:35:13;101268.94;;;17.93;100.00
55679;BME280;41573;51.446;-2.018;2023-04-28T12:37:41;101278.84;;;18.04;100.00
55679;BME280;41573;51.446;-2.018;2023-04-28T12:40:07;101177.53;;;18.13;100.00
55679;BME280;41573;51.446;-2.018;2023-04-28T12:42:33;100917.94;;;17.91;100.00
55679;BME280;41573;51.446;-2.018;2023-04-28T12:44:58;100755.97;;;18.25;100.00
55679;BME280;41573;51.446;-2.018;2023-04-28T12:47:24;100677.09;;;18.33;100.00
55679;BME280;41573;51.446;-2.018;2023-04-28T12:49:49;100726.75;;;18.40;100.00
55679;BME280;41573;51.446;-2.018;2023-04-28T12:52:17;100765.53;;;18.58;100.00